createdAt,value
2023-03-31T00:01:12.873Z,5.33
2023-03-31T00:03:43.899Z,5.07
2023-03-31T00:06:19.015Z,5.73
2023-03-31T00:08:51.651Z,5.20
2023-03-31T00:11:21.787Z,5.63
2023-03-31T00:13:51.871Z,5.20
2023-03-31T00:16:20.775Z,4.93
2023-03-31T00:18:51.033Z,5.40
2023-03-31T00:21:29.831Z,5.43
2023-03-31T00:24:00.232Z,5.37
2023-03-31T00:26:29.483Z,6.07
2023-03-31T00:29:01.355Z,5.73
2023-03-31T00:31:30.673Z,4.70
2023-03-31T00:34:00.272Z,6.10
2023-03-31T00:36:29.112Z,5.77
2023-03-31T00:39:00.746Z,4.87
2023-03-31T00:41:30.899Z,4.93
2023-03-31T00:44:14.780Z,5.00
2023-03-31T00:46:48.033Z,4.57
2023-03-31T00:49:23.690Z,4.93
2023-03-31T00:51:55.491Z,4.33
2023-03-31T00:54:26.849Z,5.07
2023-03-31T00:56:58.598Z,5.57
2023-03-31T00:59:31.888Z,5.47
2023-03-31T01:02:03.766Z,5.80
2023-03-31T01:04:36.222Z,4.87
2023-03-31T01:07:12.466Z,5.40
2023-03-31T01:09:41.988Z,5.10
2023-03-31T01:12:11.758Z,5.57
2023-03-31T01:14:42.191Z,5.53
2023-03-31T01:17:11.284Z,5.67
2023-03-31T01:20:00.478Z,5.37
2023-03-31T01:23:09.566Z,4.80
2023-03-31T01:26:07.946Z,5.20
2023-03-31T01:28:41.843Z,4.80
2023-03-31T01:31:41.971Z,4.50
2023-03-31T01:34:59.904Z,4.67
2023-03-31T01:38:16.925Z,5.00
2023-03-31T01:41:04.997Z,4.20
2023-03-31T01:43:40.816Z,4.30
2023-03-31T01:46:19.313Z,4.50
2023-03-31T01:48:55.453Z,4.80
2023-03-31T01:51:31.265Z,4.30
2023-03-31T01:54:06.546Z,4.97
2023-03-31T01:56:40.792Z,4.57
2023-03-31T01:59:14.867Z,5.93
2023-03-31T02:01:49.017Z,4.13
2023-03-31T02:04:22.127Z,4.73
2023-03-31T02:06:58.509Z,5.13
2023-03-31T02:09:32.805Z,4.80
2023-03-31T02:12:06.040Z,4.60
2023-03-31T02:14:37.675Z,4.23
2023-03-31T02:17:08.545Z,4.23
2023-03-31T02:19:41.155Z,4.37
2023-03-31T02:22:11.220Z,3.63
2023-03-31T02:24:42.640Z,4.27
2023-03-31T02:27:17.797Z,4.10
2023-03-31T02:29:46.794Z,3.73
2023-03-31T02:32:22.204Z,3.67
2023-03-31T02:34:51.548Z,3.53
2023-03-31T02:37:20.017Z,4.17
2023-03-31T02:39:51.973Z,4.13
2023-03-31T02:42:22.689Z,3.87
2023-03-31T02:44:54.079Z,3.77
2023-03-31T02:47:23.629Z,4.07
2023-03-31T02:49:57.015Z,3.70
2023-03-31T02:52:42.207Z,3.70
2023-03-31T02:55:31.715Z,4.00
2023-03-31T02:58:28.063Z,3.80
2023-03-31T03:01:09.257Z,4.30
2023-03-31T03:03:45.579Z,3.67
2023-03-31T03:06:30.172Z,4.30
2023-03-31T03:09:34.656Z,4.20
2023-03-31T03:12:14.591Z,3.63
2023-03-31T03:14:51.049Z,3.67
2023-03-31T03:17:25.057Z,4.00
2023-03-31T03:19:55.679Z,3.83
2023-03-31T03:22:24.835Z,4.07
2023-03-31T03:24:53.695Z,3.70
2023-03-31T03:27:23.845Z,4.27
2023-03-31T03:29:53.788Z,3.40
2023-03-31T03:32:22.524Z,3.80
2023-03-31T03:34:51.002Z,3.53
2023-03-31T03:37:20.318Z,4.10
2023-03-31T03:39:48.823Z,3.87
2023-03-31T03:42:17.926Z,3.50
2023-03-31T03:44:46.437Z,4.07
2023-03-31T03:47:16.577Z,3.90
2023-03-31T03:49:45.068Z,3.70
2023-03-31T03:52:13.724Z,3.57
2023-03-31T03:54:42.181Z,3.70
2023-03-31T03:57:11.300Z,4.40
2023-03-31T03:59:39.792Z,3.70
2023-03-31T04:02:08.818Z,3.67
2023-03-31T04:04:38.770Z,3.93
2023-03-31T04:07:07.723Z,3.33
2023-03-31T04:09:36.259Z,3.90
2023-03-31T04:12:05.888Z,4.57
2023-03-31T04:14:34.379Z,3.20
2023-03-31T04:17:03.413Z,3.70
2023-03-31T04:19:32.169Z,3.63
2023-03-31T04:22:03.130Z,3.47
2023-03-31T04:24:33.170Z,3.10
2023-03-31T04:27:03.088Z,3.97
2023-03-31T04:29:33.638Z,4.00
2023-03-31T04:32:02.908Z,3.90
2023-03-31T04:34:35.982Z,4.43
2023-03-31T04:37:06.254Z,3.57
2023-03-31T04:39:34.727Z,3.40
2023-03-31T04:42:03.678Z,4.50
2023-03-31T04:44:32.064Z,3.37
2023-03-31T04:47:03.201Z,3.83
2023-03-31T04:49:33.638Z,3.70
2023-03-31T04:52:03.135Z,4.07
2023-03-31T04:54:32.933Z,3.80
2023-03-31T04:57:01.889Z,4.60
2023-03-31T04:59:30.401Z,4.60
2023-03-31T05:01:59.154Z,3.67
2023-03-31T05:04:27.582Z,4.23
2023-03-31T05:06:56.559Z,3.43
2023-03-31T05:09:24.992Z,3.83
2023-03-31T05:11:55.360Z,4.23
2023-03-31T05:14:25.170Z,3.40
2023-03-31T05:16:53.917Z,3.70
2023-03-31T05:19:22.674Z,3.67
2023-03-31T05:21:51.397Z,3.47
2023-03-31T05:24:20.996Z,4.17
2023-03-31T05:26:52.890Z,3.70
2023-03-31T05:29:22.939Z,4.97
2023-03-31T05:31:53.340Z,3.73
2023-03-31T05:34:22.388Z,4.90
2023-03-31T05:36:53.885Z,4.00
2023-03-31T05:39:22.453Z,5.13
2023-03-31T05:41:51.173Z,4.97
2023-03-31T05:44:20.752Z,4.33
2023-03-31T05:46:51.215Z,3.80
2023-03-31T05:49:20.063Z,3.53
2023-03-31T05:51:48.967Z,3.77
2023-03-31T05:54:17.361Z,3.53
2023-03-31T05:56:46.521Z,3.70
2023-03-31T05:59:15.293Z,3.50
2023-03-31T06:01:44.187Z,2.93
2023-03-31T06:04:14.125Z,3.93
2023-03-31T06:06:44.415Z,4.13
2023-03-31T06:09:13.213Z,4.07
2023-03-31T06:11:42.496Z,4.60
2023-03-31T06:14:10.933Z,3.90
2023-03-31T06:16:39.923Z,4.00
2023-03-31T06:19:08.430Z,4.07
2023-03-31T06:21:39.851Z,4.47
2023-03-31T06:24:10.386Z,4.10
2023-03-31T06:26:39.134Z,3.13
2023-03-31T06:29:07.617Z,3.93
2023-03-31T06:31:36.504Z,3.37
2023-03-31T06:34:04.952Z,4.20
2023-03-31T06:36:33.893Z,3.33
2023-03-31T06:39:03.994Z,3.53
2023-03-31T06:41:32.735Z,5.03
2023-03-31T06:44:01.148Z,3.03
2023-03-31T06:46:29.970Z,4.00
2023-03-31T06:48:58.767Z,3.57
2023-03-31T06:51:27.565Z,4.00
2023-03-31T06:53:56.158Z,3.70
2023-03-31T06:56:27.325Z,3.83
2023-03-31T06:58:55.973Z,3.83
2023-03-31T07:01:24.686Z,4.17
2023-03-31T07:03:53.227Z,4.20
2023-03-31T07:06:21.929Z,3.67
2023-03-31T07:08:50.483Z,4.90
2023-03-31T07:11:21.145Z,4.67
2023-03-31T07:13:51.208Z,4.77
2023-03-31T07:16:20.332Z,5.03
2023-03-31T07:18:50.434Z,4.80
2023-03-31T07:21:19.114Z,4.40
2023-03-31T07:23:47.926Z,4.13
2023-03-31T07:26:16.587Z,4.67
2023-03-31T07:28:44.980Z,3.97
2023-03-31T07:31:16.052Z,3.87
2023-03-31T07:33:44.989Z,4.93
2023-03-31T07:36:14.319Z,4.43
2023-03-31T07:38:44.186Z,4.87
2023-03-31T07:41:14.387Z,4.77
2023-03-31T07:43:42.943Z,4.03
2023-03-31T07:46:18.322Z,3.03
2023-03-31T07:48:47.826Z,3.70
2023-03-31T07:51:17.158Z,4.70
2023-03-31T07:53:45.720Z,4.53
2023-03-31T07:56:14.861Z,4.07
2023-03-31T07:58:43.287Z,4.50
2023-03-31T08:01:16.926Z,3.83
2023-03-31T08:03:47.235Z,3.60
2023-03-31T08:06:19.897Z,3.47
2023-03-31T08:08:48.397Z,3.73
2023-03-31T08:11:17.143Z,3.73
2023-03-31T08:13:45.767Z,4.30
2023-03-31T08:16:14.659Z,4.88
2023-03-31T08:18:43.043Z,5.53
2023-03-31T08:21:13.192Z,4.40
2023-03-31T08:23:41.659Z,4.20
2023-03-31T08:26:13.978Z,3.90
2023-03-31T08:28:44.503Z,5.30
2023-03-31T08:31:16.280Z,4.73
2023-03-31T08:33:45.321Z,4.28
2023-03-31T08:36:15.803Z,4.70
2023-03-31T08:38:46.115Z,4.60
2023-03-31T08:41:33.658Z,3.88
2023-03-31T08:44:06.141Z,4.45
2023-03-31T08:46:36.763Z,3.60
2023-03-31T08:49:06.973Z,3.33
2023-03-31T08:51:42.164Z,3.72
2023-03-31T08:54:17.342Z,3.75
2023-03-31T08:56:49.749Z,4.18
2023-03-31T08:59:24.369Z,3.03
2023-03-31T09:02:01.156Z,4.90
2023-03-31T09:04:52.747Z,3.67
2023-03-31T09:07:32.198Z,4.68
2023-03-31T09:10:08.688Z,3.53
2023-03-31T09:12:47.091Z,3.47
2023-03-31T09:15:21.719Z,3.17
2023-03-31T09:17:52.476Z,3.55
2023-03-31T09:20:24.211Z,3.70
2023-03-31T09:23:01.343Z,3.53
2023-03-31T09:25:34.894Z,4.07
2023-03-31T09:28:10.564Z,4.00
2023-03-31T09:30:40.864Z,3.67
2023-03-31T09:33:15.464Z,3.10
2023-03-31T09:35:46.318Z,4.28
2023-03-31T09:38:17.404Z,3.53
2023-03-31T09:40:46.225Z,2.83
2023-03-31T09:43:22.869Z,3.13
2023-03-31T09:48:29.551Z,3.83
2023-03-31T09:51:01.857Z,2.50
2023-03-31T09:53:37.971Z,4.25
2023-03-31T09:56:09.356Z,4.03
2023-03-31T09:58:42.856Z,3.40
2023-03-31T10:01:13.473Z,3.53
2023-03-31T10:03:51.469Z,3.50
2023-03-31T10:06:20.657Z,2.65
2023-03-31T10:08:53.149Z,3.13
2023-03-31T10:11:21.993Z,3.70
2023-03-31T10:13:58.756Z,3.42
2023-03-31T10:16:31.786Z,3.33
2023-03-31T10:19:14.928Z,3.72
2023-03-31T10:21:48.070Z,3.33
2023-03-31T10:24:21.134Z,3.85
2023-03-31T10:26:50.978Z,3.08
2023-03-31T10:29:25.798Z,3.20
2023-03-31T10:31:54.550Z,3.95
2023-03-31T10:34:25.071Z,3.70
2023-03-31T10:36:53.701Z,2.95
2023-03-31T10:39:32.176Z,4.18
2023-03-31T10:42:01.814Z,4.72
2023-03-31T10:44:36.973Z,3.72
2023-03-31T10:47:08.419Z,4.70
2023-03-31T10:49:41.061Z,4.40
2023-03-31T10:52:18.811Z,3.47
2023-03-31T10:54:50.942Z,3.53
2023-03-31T10:57:24.613Z,3.95
2023-03-31T11:00:06.388Z,3.40
2023-03-31T11:02:59.851Z,3.83
2023-03-31T11:05:34.697Z,3.50
2023-03-31T11:08:20.198Z,4.35
2023-03-31T11:11:02.099Z,4.57
2023-03-31T11:13:39.321Z,3.22
2023-03-31T11:16:23.776Z,4.15
2023-03-31T11:19:05.536Z,4.55
2023-03-31T11:21:48.293Z,3.40
2023-03-31T11:24:28.419Z,4.70
2023-03-31T11:27:10.114Z,4.25
2023-03-31T11:29:43.230Z,4.10
2023-03-31T11:32:35.038Z,3.58
2023-03-31T11:35:16.535Z,4.40
2023-03-31T11:38:01.799Z,4.53
2023-03-31T11:40:41.204Z,4.30
2023-03-31T11:43:18.044Z,4.25
2023-03-31T11:45:52.106Z,3.88
2023-03-31T11:48:32.510Z,3.88
2023-03-31T11:51:03.068Z,4.10
2023-03-31T11:53:35.406Z,4.53
2023-03-31T11:56:07.527Z,2.90
2023-03-31T11:58:43.385Z,4.03
2023-03-31T12:01:19.288Z,3.38
2023-03-31T12:03:54.192Z,3.60
2023-03-31T12:06:25.077Z,2.95
2023-03-31T12:09:07.777Z,4.60
2023-03-31T12:11:43.496Z,4.20
2023-03-31T12:14:27.045Z,4.35
2023-03-31T12:17:00.415Z,4.32
2023-03-31T12:19:33.651Z,4.72
2023-03-31T12:22:11.525Z,4.68
2023-03-31T12:24:40.477Z,4.93
2023-03-31T12:27:15.290Z,3.88
2023-03-31T12:29:47.929Z,4.13
2023-03-31T12:32:19.349Z,4.38
2023-03-31T12:34:56.620Z,5.10
2023-03-31T12:37:47.048Z,4.55
2023-03-31T12:40:25.013Z,4.53
2023-03-31T12:43:08.534Z,4.13
2023-03-31T12:45:43.922Z,4.78
2023-03-31T12:48:40.167Z,5.00
2023-03-31T12:51:24.827Z,3.95
2023-03-31T12:54:05.472Z,4.63
2023-03-31T12:57:04.981Z,5.63
2023-03-31T12:59:35.157Z,5.80
2023-03-31T13:02:28.964Z,4.55
2023-03-31T13:04:57.483Z,4.88
2023-03-31T13:07:38.688Z,5.05
2023-03-31T13:10:30.780Z,4.95
2023-03-31T13:13:05.642Z,4.32
2023-03-31T13:15:34.629Z,6.78
2023-03-31T13:18:07.303Z,5.25
2023-03-31T13:20:37.975Z,4.50
2023-03-31T13:23:26.385Z,4.68
2023-03-31T13:25:55.620Z,5.07
2023-03-31T13:28:39.954Z,4.15
2023-03-31T13:31:10.344Z,3.35
2023-03-31T13:33:48.298Z,4.97
2023-03-31T13:36:49.161Z,5.03
2023-03-31T13:40:05.076Z,5.05
2023-03-31T13:43:06.264Z,5.03
2023-03-31T13:45:49.397Z,4.50
2023-03-31T13:48:33.299Z,4.97
2023-03-31T13:51:36.624Z,5.65
2023-03-31T13:54:31.593Z,5.75
2023-03-31T13:57:23.413Z,4.00
2023-03-31T14:00:14.532Z,4.78
2023-03-31T14:02:58.547Z,4.80
2023-03-31T14:05:37.117Z,5.38
2023-03-31T14:08:14.678Z,6.38
2023-03-31T14:10:44.662Z,4.10
2023-03-31T14:13:16.376Z,5.05
2023-03-31T14:15:50.172Z,4.95
2023-03-31T14:18:24.864Z,4.60
2023-03-31T14:21:05.774Z,5.50
2023-03-31T14:23:49.551Z,4.55
2023-03-31T14:26:31.521Z,4.97
2023-03-31T14:29:15.218Z,5.50
2023-03-31T14:31:50.111Z,4.72
2023-03-31T14:34:34.280Z,4.75
2023-03-31T14:37:05.325Z,5.32
2023-03-31T14:39:38.766Z,4.53
2023-03-31T14:42:12.781Z,4.28
2023-03-31T14:44:46.927Z,4.80
2023-03-31T14:47:17.931Z,4.13
2023-03-31T14:49:46.790Z,4.70
2023-03-31T14:52:18.498Z,4.28
2023-03-31T14:54:49.173Z,3.72
2023-03-31T14:57:20.712Z,4.15
2023-03-31T14:59:52.645Z,3.60
2023-03-31T15:02:29.454Z,3.50
2023-03-31T15:04:58.575Z,4.35
2023-03-31T15:07:28.589Z,3.88
2023-03-31T15:09:59.139Z,4.10
2023-03-31T15:12:30.610Z,5.18
2023-03-31T15:15:04.406Z,4.35
2023-03-31T15:17:37.694Z,4.40
2023-03-31T15:20:28.087Z,4.50
2023-03-31T15:22:57.478Z,4.00
2023-03-31T15:25:32.803Z,4.60
2023-03-31T15:28:04.745Z,4.20
2023-03-31T15:30:35.036Z,3.85
2023-03-31T15:33:19.259Z,4.20
2023-03-31T15:35:49.107Z,4.03
2023-03-31T15:38:18.901Z,3.63
2023-03-31T15:40:54.383Z,4.28
2023-03-31T15:43:30.753Z,3.97
2023-03-31T15:46:00.709Z,4.40
2023-03-31T15:48:34.212Z,4.45
2023-03-31T15:51:04.240Z,4.60
2023-03-31T15:53:37.254Z,4.72
2023-03-31T15:56:08.350Z,5.07
2023-03-31T15:58:55.474Z,4.85
2023-03-31T16:01:26.025Z,5.70
2023-03-31T16:03:55.615Z,5.45
2023-03-31T16:06:43.354Z,5.22
2023-03-31T16:09:16.188Z,5.72
2023-03-31T16:11:49.492Z,6.32
2023-03-31T16:14:22.217Z,6.88
2023-03-31T16:16:54.532Z,6.28
2023-03-31T16:19:25.892Z,6.50
2023-03-31T16:21:59.689Z,7.22
2023-03-31T16:24:32.368Z,7.10
2023-03-31T16:27:06.586Z,8.05
2023-03-31T16:29:35.913Z,7.50
2023-03-31T16:32:09.938Z,7.57
2023-03-31T16:34:53.564Z,7.70
2023-03-31T16:37:22.652Z,7.80
2023-03-31T16:39:51.345Z,7.72
2023-03-31T16:42:22.126Z,7.53
2023-03-31T16:45:09.549Z,8.40
2023-03-31T16:47:40.998Z,6.78
2023-03-31T16:50:11.985Z,7.10
2023-03-31T16:52:40.970Z,6.15
2023-03-31T16:55:10.421Z,6.05
2023-03-31T16:57:40.622Z,6.57
2023-03-31T17:00:10.637Z,5.72
2023-03-31T17:02:39.656Z,5.90
2023-03-31T17:05:13.171Z,6.40
2023-03-31T17:07:42.393Z,6.85
2023-03-31T17:10:12.739Z,6.85
2023-03-31T17:12:42.962Z,8.80
2023-03-31T17:15:12.853Z,7.95
2023-03-31T17:17:41.660Z,7.53
2023-03-31T17:20:12.118Z,8.57
2023-03-31T17:22:41.662Z,7.65
2023-03-31T17:25:11.404Z,9.40
2023-03-31T17:27:40.223Z,8.00
2023-03-31T17:30:11.015Z,9.07
2023-03-31T17:32:40.174Z,8.82
2023-03-31T17:35:10.328Z,8.52
2023-03-31T17:37:39.120Z,8.40
2023-03-31T17:40:09.728Z,9.35
2023-03-31T17:42:39.054Z,8.23
2023-03-31T17:45:11.612Z,7.20
2023-03-31T17:47:40.455Z,7.07
2023-03-31T17:50:09.861Z,8.50
2023-03-31T17:52:39.127Z,7.90
2023-03-31T17:55:09.001Z,9.15
2023-03-31T17:57:39.020Z,7.25
2023-03-31T18:00:11.110Z,8.25
2023-03-31T18:02:40.688Z,7.70
2023-03-31T18:05:10.835Z,8.38
2023-03-31T18:07:39.701Z,8.07
2023-03-31T18:10:09.955Z,8.77
2023-03-31T18:12:38.815Z,7.57
2023-03-31T18:15:10.408Z,9.88
2023-03-31T18:17:40.732Z,10.88
2023-03-31T18:20:10.103Z,11.35
2023-03-31T18:22:38.819Z,9.30
2023-03-31T18:25:08.443Z,10.25
2023-03-31T18:27:37.273Z,10.82
2023-03-31T18:30:06.524Z,10.85
2023-03-31T18:32:35.764Z,10.98
2023-03-31T18:35:06.475Z,10.15
2023-03-31T18:37:35.237Z,9.25
2023-03-31T18:40:03.740Z,10.05
2023-03-31T18:42:32.629Z,10.85
2023-03-31T18:45:01.132Z,9.90
2023-03-31T18:47:29.928Z,9.75
2023-03-31T18:49:58.444Z,15.70
2023-03-31T18:52:28.568Z,12.75
2023-03-31T18:54:57.468Z,11.63
2023-03-31T18:57:26.680Z,10.90
2023-03-31T18:59:55.760Z,11.10
2023-03-31T19:02:24.749Z,11.88
2023-03-31T19:04:53.386Z,12.32
2023-03-31T19:07:22.085Z,12.13
2023-03-31T19:09:51.923Z,12.60
2023-03-31T19:12:22.317Z,11.50
2023-03-31T19:14:50.888Z,10.88
2023-03-31T19:17:19.853Z,11.63
2023-03-31T19:19:48.701Z,12.52
2023-03-31T19:22:17.614Z,13.18
2023-03-31T19:24:46.139Z,11.93
2023-03-31T19:27:16.200Z,12.15
2023-03-31T19:29:44.603Z,11.68
2023-03-31T19:32:13.420Z,11.77
2023-03-31T19:34:42.527Z,11.73
2023-03-31T19:37:12.034Z,11.47
2023-03-31T19:39:40.556Z,10.57
2023-03-31T19:42:09.503Z,10.65
2023-03-31T19:44:39.633Z,10.77
2023-03-31T19:47:08.356Z,11.40
2023-03-31T19:49:36.952Z,11.20
2023-03-31T19:52:06.286Z,10.63
2023-03-31T19:54:34.738Z,11.50
2023-03-31T19:57:03.733Z,12.00
2023-03-31T19:59:32.636Z,12.87
2023-03-31T20:04:34.194Z,12.53
2023-03-31T20:07:03.337Z,12.43
2023-03-31T20:09:31.801Z,12.40
2023-03-31T20:12:00.712Z,11.83
2023-03-31T20:14:29.643Z,12.53
2023-03-31T20:17:00.907Z,11.47
2023-03-31T20:19:31.384Z,12.03
2023-03-31T20:21:59.812Z,12.63
2023-03-31T20:24:29.417Z,12.13
2023-03-31T20:26:58.641Z,12.10
2023-03-31T20:29:27.356Z,11.63
2023-03-31T20:31:55.986Z,12.00
2023-03-31T20:34:24.806Z,11.83
2023-03-31T20:36:54.664Z,11.97
2023-03-31T20:39:23.806Z,11.40
2023-03-31T20:41:52.293Z,11.50
2023-03-31T20:44:21.372Z,10.80
2023-03-31T20:46:50.806Z,13.13
2023-03-31T20:49:19.491Z,10.27
2023-03-31T20:51:49.063Z,10.93
2023-03-31T20:54:19.339Z,9.23
2023-03-31T20:56:47.854Z,8.13
2023-03-31T20:59:16.956Z,8.70
2023-03-31T21:01:47.861Z,8.57
2023-03-31T21:04:18.030Z,8.00
2023-03-31T21:06:48.171Z,8.30
2023-03-31T21:09:18.830Z,8.53
2023-03-31T21:11:47.402Z,7.80
2023-03-31T21:14:17.840Z,6.87
2023-03-31T21:16:46.976Z,7.37
2023-03-31T21:19:15.718Z,7.57
2023-03-31T21:21:44.149Z,7.57
2023-03-31T21:24:13.788Z,7.77
2023-03-31T21:26:43.656Z,7.13
2023-03-31T21:29:12.507Z,7.67
2023-03-31T21:31:41.570Z,8.27
2023-03-31T21:34:10.988Z,8.13
2023-03-31T21:36:42.237Z,7.90
2023-03-31T21:39:11.468Z,7.47
2023-03-31T21:41:40.585Z,7.50
2023-03-31T21:44:12.060Z,7.23
2023-03-31T21:46:44.990Z,7.17
2023-03-31T21:49:14.420Z,7.93
2023-03-31T21:51:43.677Z,7.30
2023-03-31T21:54:12.504Z,7.90
2023-03-31T21:56:40.886Z,7.43
2023-03-31T21:59:13.920Z,6.77
2023-03-31T22:01:42.735Z,8.13
2023-03-31T22:04:11.501Z,8.10
2023-03-31T22:06:40.366Z,8.27
2023-03-31T22:09:14.385Z,6.97
2023-03-31T22:11:42.940Z,6.60
2023-03-31T22:14:13.106Z,6.87
2023-03-31T22:16:41.597Z,7.60
2023-03-31T22:19:17.440Z,7.97
2023-03-31T22:21:49.287Z,6.60
2023-03-31T22:24:19.455Z,6.53
2023-03-31T22:26:50.959Z,6.50
2023-03-31T22:29:31.361Z,5.73
2023-03-31T22:32:02.892Z,5.63
2023-03-31T22:34:32.077Z,6.17
2023-03-31T22:37:05.124Z,5.97
2023-03-31T22:39:36.208Z,5.67
2023-03-31T22:42:08.655Z,5.60
2023-03-31T22:44:41.340Z,5.43
2023-03-31T22:47:13.486Z,5.40
2023-03-31T22:49:43.477Z,5.63
2023-03-31T22:52:17.742Z,5.43
2023-03-31T22:54:48.650Z,6.20
2023-03-31T22:57:17.738Z,5.20
2023-03-31T22:59:48.074Z,6.27
2023-03-31T23:02:16.823Z,5.63
2023-03-31T23:04:49.093Z,6.33
2023-03-31T23:07:17.909Z,5.77
2023-03-31T23:09:46.663Z,5.07
2023-03-31T23:12:15.449Z,4.87
2023-03-31T23:14:45.373Z,4.57
2023-03-31T23:17:16.370Z,4.60
2023-03-31T23:19:47.489Z,4.83
2023-03-31T23:22:18.292Z,4.03
2023-03-31T23:24:49.399Z,4.90
2023-03-31T23:27:21.024Z,4.60
2023-03-31T23:29:49.742Z,4.73
2023-03-31T23:32:19.784Z,4.43
2023-03-31T23:34:51.672Z,4.53
2023-03-31T23:37:20.545Z,4.43
2023-03-31T23:39:52.200Z,4.77
2023-03-31T23:42:24.759Z,4.60
2023-03-31T23:44:53.509Z,5.27
2023-03-31T23:47:25.396Z,4.83
2023-03-31T23:49:54.297Z,5.20
2023-03-31T23:52:24.737Z,4.93
2023-03-31T23:54:53.930Z,4.27
2023-03-31T23:57:22.502Z,5.13
2023-03-31T23:59:52.489Z,5.63
